createdAt,value
2022-12-18T00:01:23.673Z,28.00
2022-12-18T00:03:51.757Z,29.97
2022-12-18T00:06:19.931Z,30.07
2022-12-18T00:08:47.706Z,29.90
2022-12-18T00:11:19.903Z,30.67
2022-12-18T00:13:47.285Z,29.30
2022-12-18T00:16:23.523Z,29.23
2022-12-18T00:18:53.342Z,28.77
2022-12-18T00:21:21.216Z,28.67
2022-12-18T00:23:51.083Z,31.03
2022-12-18T00:26:26.871Z,30.17
2022-12-18T00:29:05.602Z,25.93
2022-12-18T00:31:33.397Z,29.60
2022-12-18T00:34:02.249Z,28.07
2022-12-18T00:36:32.925Z,27.83
2022-12-18T00:39:01.673Z,26.80
2022-12-18T00:41:47.907Z,29.80
2022-12-18T00:44:17.266Z,26.93
2022-12-18T00:46:45.264Z,29.27
2022-12-18T00:49:14.016Z,29.60
2022-12-18T00:51:40.999Z,30.63
2022-12-18T00:54:08.103Z,22.57
2022-12-18T00:56:45.730Z,28.70
2022-12-18T00:59:17.377Z,27.60
2022-12-18T01:01:44.425Z,28.53
2022-12-18T01:04:11.639Z,27.53
2022-12-18T01:06:38.583Z,29.57
2022-12-18T01:09:05.583Z,29.57
2022-12-18T01:11:32.555Z,30.67
2022-12-18T01:14:00.563Z,30.47
2022-12-18T01:16:27.758Z,30.70
2022-12-18T01:18:55.642Z,27.43
2022-12-18T01:21:23.801Z,30.17
2022-12-18T01:23:58.019Z,29.97
2022-12-18T01:26:26.293Z,28.87
2022-12-18T01:28:54.841Z,25.40
2022-12-18T01:31:25.562Z,28.67
2022-12-18T01:33:53.682Z,28.63
2022-12-18T01:36:26.873Z,28.67
2022-12-18T01:38:54.708Z,24.97
2022-12-18T01:41:28.002Z,29.27
2022-12-18T01:43:59.148Z,27.70
2022-12-18T01:46:27.409Z,27.70
2022-12-18T01:49:02.384Z,29.97
2022-12-18T01:51:31.791Z,28.97
2022-12-18T01:54:00.269Z,28.03
2022-12-18T01:56:27.412Z,30.17
2022-12-18T01:58:56.700Z,27.97
2022-12-18T02:01:24.989Z,28.50
2022-12-18T02:03:52.919Z,30.63
2022-12-18T02:06:34.410Z,29.53
2022-12-18T02:09:10.974Z,23.63
2022-12-18T02:12:10.542Z,29.30
2022-12-18T02:14:39.839Z,28.70
2022-12-18T02:17:15.782Z,28.37
2022-12-18T02:20:20.455Z,28.70
2022-12-18T02:22:59.430Z,27.57
2022-12-18T02:26:04.098Z,26.53
2022-12-18T02:28:37.168Z,29.50
2022-12-18T02:31:11.798Z,28.33
2022-12-18T02:33:41.802Z,28.07
2022-12-18T02:36:11.960Z,29.50
2022-12-18T02:38:40.558Z,30.63
2022-12-18T02:41:14.263Z,29.13
2022-12-18T02:43:46.969Z,28.93
2022-12-18T02:46:29.449Z,28.33
2022-12-18T02:49:11.242Z,27.93
2022-12-18T02:52:08.192Z,27.90
2022-12-18T02:54:41.407Z,28.93
2022-12-18T02:57:25.833Z,27.73
2022-12-18T03:00:03.741Z,28.70
2022-12-18T03:02:50.095Z,26.67
2022-12-18T03:05:28.867Z,27.17
2022-12-18T03:08:09.760Z,28.33
2022-12-18T03:10:49.661Z,27.13
2022-12-18T03:13:24.563Z,27.43
2022-12-18T03:15:54.975Z,28.70
2022-12-18T03:18:27.578Z,28.50
2022-12-18T03:20:59.531Z,28.93
2022-12-18T03:23:33.367Z,27.90
2022-12-18T03:26:07.570Z,28.47
2022-12-18T03:28:46.072Z,28.93
2022-12-18T03:31:15.137Z,27.37
2022-12-18T03:33:56.913Z,27.70
2022-12-18T03:36:33.144Z,26.67
2022-12-18T03:39:01.797Z,26.70
2022-12-18T03:41:46.281Z,28.23
2022-12-18T03:45:02.085Z,27.73
2022-12-18T03:47:41.103Z,26.50
2022-12-18T03:50:38.053Z,26.17
2022-12-18T03:53:12.476Z,25.43
2022-12-18T03:55:40.530Z,27.03
2022-12-18T03:58:10.975Z,26.23
2022-12-18T04:00:54.288Z,26.90
2022-12-18T04:03:26.247Z,27.33
2022-12-18T04:05:55.716Z,25.90
2022-12-18T04:08:24.428Z,27.40
2022-12-18T04:11:01.045Z,26.20
2022-12-18T04:13:35.436Z,26.97
2022-12-18T04:16:06.771Z,25.53
2022-12-18T04:18:34.175Z,25.73
2022-12-18T04:21:02.622Z,24.83
2022-12-18T04:23:29.901Z,26.73
2022-12-18T04:25:59.143Z,26.23
2022-12-18T04:28:44.855Z,25.03
2022-12-18T04:31:13.014Z,26.00
2022-12-18T04:33:40.767Z,25.03
2022-12-18T04:36:08.714Z,25.53
2022-12-18T04:38:35.672Z,23.07
2022-12-18T04:41:08.067Z,26.43
2022-12-18T04:43:36.995Z,25.77
2022-12-18T04:46:09.149Z,26.20
2022-12-18T04:48:37.070Z,22.90
2022-12-18T04:51:05.682Z,23.90
2022-12-18T04:53:32.989Z,25.63
2022-12-18T04:56:11.821Z,27.03
2022-12-18T04:58:40.309Z,26.73
2022-12-18T05:01:08.644Z,25.70
2022-12-18T05:03:36.937Z,27.17
2022-12-18T05:06:05.024Z,25.43
2022-12-18T05:08:32.178Z,27.93
2022-12-18T05:11:11.081Z,26.40
2022-12-18T05:13:39.408Z,26.57
2022-12-18T05:16:07.601Z,25.33
2022-12-18T05:18:35.547Z,24.13
2022-12-18T05:21:02.915Z,26.77
2022-12-18T05:23:29.937Z,26.63
2022-12-18T05:26:01.674Z,27.00
2022-12-18T05:28:30.715Z,25.40
2022-12-18T05:31:00.040Z,26.07
2022-12-18T05:33:30.090Z,26.77
2022-12-18T05:35:59.531Z,26.57
2022-12-18T05:38:27.514Z,26.20
2022-12-18T05:40:55.145Z,25.53
2022-12-18T05:43:23.262Z,25.93
2022-12-18T05:45:50.472Z,26.70
2022-12-18T05:48:18.235Z,27.77
2022-12-18T05:50:46.652Z,27.57
2022-12-18T05:53:16.432Z,26.27
2022-12-18T05:55:44.418Z,26.27
2022-12-18T05:58:13.684Z,25.90
2022-12-18T06:00:43.274Z,25.70
2022-12-18T06:03:11.670Z,26.27
2022-12-18T06:05:40.990Z,26.27
2022-12-18T06:08:08.148Z,26.17
2022-12-18T06:10:35.147Z,26.43
2022-12-18T06:13:02.705Z,27.07
2022-12-18T06:15:29.585Z,26.73
2022-12-18T06:17:56.715Z,27.40
2022-12-18T06:20:24.706Z,27.40
2022-12-18T06:22:53.492Z,27.50
2022-12-18T06:25:20.404Z,27.43
2022-12-18T06:27:49.268Z,26.27
2022-12-18T06:30:16.761Z,27.10
2022-12-18T06:32:43.819Z,26.27
2022-12-18T06:35:11.237Z,27.27
2022-12-18T06:37:38.157Z,27.83
2022-12-18T06:40:06.165Z,27.77
2022-12-18T06:42:33.074Z,27.47
2022-12-18T06:45:00.030Z,27.20
2022-12-18T06:47:27.050Z,27.40
2022-12-18T06:49:53.952Z,26.90
2022-12-18T06:52:20.912Z,28.33
2022-12-18T06:54:47.987Z,28.83
2022-12-18T06:57:14.950Z,28.33
2022-12-18T06:59:41.891Z,27.50
2022-12-18T07:02:13.049Z,26.93
2022-12-18T07:04:40.021Z,27.17
2022-12-18T07:07:07.370Z,28.00
2022-12-18T07:09:34.424Z,27.43
2022-12-18T07:12:01.512Z,28.70
2022-12-18T07:14:28.362Z,27.93
2022-12-18T07:16:55.461Z,27.80
2022-12-18T07:19:22.522Z,27.73
2022-12-18T07:21:51.767Z,28.33
2022-12-18T07:24:18.864Z,27.00
2022-12-18T07:26:48.915Z,28.73
2022-12-18T07:29:15.927Z,29.07
2022-12-18T07:31:43.596Z,28.03
2022-12-18T07:34:16.303Z,28.20
2022-12-18T07:36:43.653Z,28.80
2022-12-18T07:39:12.309Z,29.67
2022-12-18T07:41:43.805Z,27.93
2022-12-18T07:44:16.480Z,25.90
2022-12-18T07:46:43.384Z,27.63
2022-12-18T07:49:10.479Z,27.67
2022-12-18T07:51:37.437Z,28.37
2022-12-18T07:54:04.580Z,28.63
2022-12-18T07:56:31.758Z,28.60
2022-12-18T07:59:00.399Z,29.30
2022-12-18T08:01:28.763Z,30.33
2022-12-18T08:03:56.004Z,28.17
2022-12-18T08:06:24.341Z,27.70
2022-12-18T08:08:56.209Z,28.10
2022-12-18T08:11:25.370Z,27.87
2022-12-18T08:13:52.967Z,28.73
2022-12-18T08:16:20.923Z,27.70
2022-12-18T08:18:48.547Z,25.93
2022-12-18T08:21:27.754Z,29.97
2022-12-18T08:23:56.208Z,29.03
2022-12-18T08:26:24.943Z,29.33
2022-12-18T08:28:53.014Z,28.33
2022-12-18T08:31:20.501Z,30.00
2022-12-18T08:33:50.586Z,28.40
2022-12-18T08:36:18.498Z,29.63
2022-12-18T08:38:45.696Z,30.37
2022-12-18T08:41:14.906Z,29.00
2022-12-18T08:44:00.468Z,30.73
2022-12-18T08:46:32.380Z,29.17
2022-12-18T08:48:59.658Z,29.87
2022-12-18T08:51:26.730Z,29.90
2022-12-18T08:53:53.800Z,30.60
2022-12-18T08:56:20.806Z,30.40
2022-12-18T08:58:47.743Z,30.07
2022-12-18T09:01:15.098Z,30.83
2022-12-18T09:03:42.625Z,30.77
2022-12-18T09:06:10.149Z,29.33
2022-12-18T09:08:38.192Z,29.40
2022-12-18T09:11:05.612Z,29.83
2022-12-18T09:13:32.664Z,31.03
2022-12-18T09:15:59.830Z,30.53
2022-12-18T09:18:26.699Z,31.50
2022-12-18T09:20:54.161Z,32.63
2022-12-18T09:23:21.849Z,32.57
2022-12-18T09:25:49.221Z,31.73
2022-12-18T09:28:18.815Z,31.83
2022-12-18T09:30:49.916Z,31.57
2022-12-18T09:33:18.314Z,31.37
2022-12-18T09:35:46.365Z,31.53
2022-12-18T09:38:17.164Z,30.87
2022-12-18T09:40:49.736Z,31.47
2022-12-18T09:43:38.083Z,33.30
2022-12-18T09:46:09.923Z,31.63
2022-12-18T09:48:43.762Z,29.67
2022-12-18T09:51:18.330Z,28.97
2022-12-18T09:53:51.095Z,31.23
2022-12-18T09:56:23.800Z,30.80
2022-12-18T09:58:58.313Z,32.00
2022-12-18T10:01:28.813Z,30.57
2022-12-18T10:04:01.023Z,29.03
2022-12-18T10:06:39.350Z,28.80
2022-12-18T10:09:43.229Z,28.40
2022-12-18T10:12:28.668Z,29.30
2022-12-18T10:15:11.866Z,30.13
2022-12-18T10:17:48.295Z,29.50
2022-12-18T10:20:33.111Z,29.50
2022-12-18T10:23:00.105Z,28.50
2022-12-18T10:25:35.737Z,27.87
2022-12-18T10:28:15.139Z,29.60
2022-12-18T10:30:43.452Z,28.93
2022-12-18T10:33:17.031Z,27.83
2022-12-18T10:35:45.376Z,28.53
2022-12-18T10:38:15.112Z,27.20
2022-12-18T10:41:02.113Z,29.07
2022-12-18T10:43:39.821Z,30.40
2022-12-18T10:46:09.928Z,29.33
2022-12-18T10:48:48.712Z,29.53
2022-12-18T10:51:26.803Z,29.67
2022-12-18T10:53:58.091Z,29.50
2022-12-18T10:56:28.298Z,28.83
2022-12-18T10:59:21.796Z,29.43
2022-12-18T11:01:57.858Z,30.33
2022-12-18T11:04:31.131Z,29.70
2022-12-18T11:07:02.507Z,28.93
2022-12-18T11:09:34.436Z,26.80
2022-12-18T11:12:23.678Z,28.70
2022-12-18T11:14:53.276Z,27.67
2022-12-18T11:17:35.737Z,28.43
2022-12-18T11:20:27.762Z,26.63
2022-12-18T11:23:05.283Z,27.57
2022-12-18T11:25:35.628Z,25.87
2022-12-18T11:28:23.823Z,25.57
2022-12-18T11:31:03.779Z,26.43
2022-12-18T11:33:30.947Z,25.97
2022-12-18T11:36:04.804Z,27.07
2022-12-18T11:38:35.771Z,23.83
2022-12-18T11:41:17.966Z,21.17
2022-12-18T11:44:04.620Z,22.17
2022-12-18T11:46:37.816Z,22.87
2022-12-18T11:49:26.055Z,23.67
2022-12-18T11:51:57.022Z,24.03
2022-12-18T11:54:24.109Z,24.33
2022-12-18T11:56:59.946Z,23.53
2022-12-18T11:59:41.909Z,22.73
2022-12-18T12:02:17.811Z,22.47
2022-12-18T12:05:25.425Z,20.20
2022-12-18T12:08:15.743Z,21.43
2022-12-18T12:10:42.573Z,20.60
2022-12-18T12:13:29.280Z,20.80
2022-12-18T12:16:05.813Z,19.90
2022-12-18T12:19:00.561Z,19.47
2022-12-18T12:21:40.417Z,18.70
2022-12-18T12:24:41.013Z,19.83
2022-12-18T12:27:28.090Z,20.13
2022-12-18T12:30:15.341Z,20.17
2022-12-18T12:32:42.327Z,20.53
2022-12-18T12:35:30.340Z,21.63
2022-12-18T12:38:14.821Z,20.63
2022-12-18T12:41:05.084Z,20.23
2022-12-18T12:43:50.566Z,19.57
2022-12-18T12:46:22.488Z,19.27
2022-12-18T12:48:59.153Z,19.37
2022-12-18T12:51:29.949Z,19.23
2022-12-18T12:53:59.652Z,20.07
2022-12-18T12:56:37.672Z,20.10
2022-12-18T12:59:23.140Z,18.37
2022-12-18T13:02:01.312Z,19.63
2022-12-18T13:04:34.117Z,18.93
2022-12-18T13:07:05.601Z,18.00
2022-12-18T13:09:36.952Z,18.93
2022-12-18T13:12:34.920Z,18.33
2022-12-18T13:15:40.732Z,18.30
2022-12-18T13:18:18.472Z,17.63
2022-12-18T13:20:55.168Z,19.20
2022-12-18T13:23:25.457Z,18.37
2022-12-18T13:25:54.556Z,19.27
2022-12-18T13:28:46.958Z,19.60
2022-12-18T13:31:35.120Z,19.23
2022-12-18T13:34:26.901Z,19.50
2022-12-18T13:36:57.284Z,20.90
2022-12-18T13:39:35.786Z,19.70
2022-12-18T13:42:03.163Z,21.27
2022-12-18T13:44:41.067Z,20.53
2022-12-18T13:47:33.419Z,19.87
2022-12-18T13:50:02.934Z,19.87
2022-12-18T13:52:37.142Z,20.87
2022-12-18T13:55:16.129Z,22.77
2022-12-18T13:57:43.087Z,19.90
2022-12-18T14:00:30.365Z,21.27
2022-12-18T14:02:59.111Z,20.63
2022-12-18T14:05:36.076Z,21.37
2022-12-18T14:08:13.828Z,21.27
2022-12-18T14:10:48.187Z,20.23
2022-12-18T14:13:38.719Z,19.53
2022-12-18T14:16:08.544Z,18.40
2022-12-18T14:18:51.713Z,20.73
2022-12-18T14:21:28.883Z,20.53
2022-12-18T14:24:20.570Z,19.40
2022-12-18T14:26:50.636Z,20.20
2022-12-18T14:29:20.840Z,19.33
2022-12-18T14:32:25.663Z,20.80
2022-12-18T14:34:55.124Z,20.93
2022-12-18T14:37:26.027Z,22.97
2022-12-18T14:40:03.260Z,22.30
2022-12-18T14:42:34.944Z,24.20
2022-12-18T14:45:42.712Z,26.27
2022-12-18T14:48:23.014Z,23.43
2022-12-18T14:51:02.398Z,24.50
2022-12-18T14:53:50.515Z,25.80
2022-12-18T14:56:36.314Z,21.60
2022-12-18T14:59:19.237Z,27.23
2022-12-18T15:02:16.869Z,24.67
2022-12-18T15:04:45.099Z,26.60
2022-12-18T15:07:12.116Z,26.13
2022-12-18T15:09:41.603Z,27.47
2022-12-18T15:12:27.762Z,27.87
2022-12-18T15:14:54.923Z,24.00
2022-12-18T15:17:26.708Z,26.63
2022-12-18T15:20:01.860Z,22.87
2022-12-18T15:22:31.452Z,26.37
2022-12-18T15:25:00.283Z,26.97
2022-12-18T15:27:38.937Z,27.47
2022-12-18T15:30:09.094Z,25.77
2022-12-18T15:32:40.421Z,22.87
2022-12-18T15:35:24.009Z,26.23
2022-12-18T15:37:52.548Z,26.80
2022-12-18T15:40:22.418Z,26.53
2022-12-18T15:43:10.544Z,26.90
2022-12-18T15:45:37.493Z,26.37
2022-12-18T15:48:22.613Z,28.00
2022-12-18T15:50:56.792Z,27.03
2022-12-18T15:53:25.205Z,30.03
2022-12-18T15:56:10.900Z,27.37
2022-12-18T15:58:38.080Z,27.47
2022-12-18T16:01:05.386Z,27.00
2022-12-18T16:03:32.513Z,26.93
2022-12-18T16:06:01.387Z,27.47
2022-12-18T16:08:32.812Z,26.80
2022-12-18T16:11:00.830Z,28.23
2022-12-18T16:13:28.038Z,27.70
2022-12-18T16:15:55.091Z,28.40
2022-12-18T16:18:22.143Z,29.70
2022-12-18T16:20:49.173Z,29.40
2022-12-18T16:23:16.274Z,29.23
2022-12-18T16:25:43.449Z,32.07
2022-12-18T16:28:10.728Z,27.27
2022-12-18T16:30:38.468Z,31.03
2022-12-18T16:33:06.967Z,31.07
2022-12-18T16:35:35.354Z,32.60
2022-12-18T16:38:02.322Z,31.40
2022-12-18T16:40:29.348Z,30.83
2022-12-18T16:42:56.370Z,30.47
2022-12-18T16:45:23.351Z,32.33
2022-12-18T16:47:50.482Z,32.87
2022-12-18T16:50:17.581Z,32.17
2022-12-18T16:52:44.940Z,33.57
2022-12-18T16:55:12.131Z,31.30
2022-12-18T16:57:39.451Z,32.33
2022-12-18T17:00:07.420Z,30.33
2022-12-18T17:02:34.616Z,32.47
2022-12-18T17:05:02.017Z,34.10
2022-12-18T17:07:29.185Z,35.63
2022-12-18T17:09:56.808Z,36.37
2022-12-18T17:12:24.145Z,37.20
2022-12-18T17:14:51.254Z,36.80
2022-12-18T17:17:21.705Z,37.97
2022-12-18T17:19:50.664Z,38.73
2022-12-18T17:22:17.772Z,39.67
2022-12-18T17:24:44.915Z,39.80
2022-12-18T17:27:13.142Z,40.07
2022-12-18T17:29:46.753Z,38.70
2022-12-18T17:32:15.984Z,38.60
2022-12-18T17:34:43.141Z,38.60
2022-12-18T17:37:10.590Z,40.87
2022-12-18T17:39:37.868Z,40.03
2022-12-18T17:42:05.362Z,38.23
2022-12-18T17:44:34.478Z,42.37
2022-12-18T17:47:02.264Z,40.50
2022-12-18T17:49:29.504Z,41.60
2022-12-18T17:51:57.251Z,41.17
2022-12-18T17:54:24.319Z,38.33
2022-12-18T17:56:51.429Z,42.37
2022-12-18T17:59:18.685Z,41.03
2022-12-18T18:01:46.115Z,43.13
2022-12-18T18:04:14.193Z,44.83
2022-12-18T18:06:41.341Z,43.97
2022-12-18T18:09:15.160Z,44.50
2022-12-18T18:12:02.944Z,46.63
2022-12-18T18:14:30.184Z,46.87
2022-12-18T18:17:04.066Z,47.97
2022-12-18T18:19:33.592Z,46.43
2022-12-18T18:22:02.159Z,46.43
2022-12-18T18:24:30.661Z,51.73
2022-12-18T18:26:59.655Z,52.83
2022-12-18T18:29:30.597Z,50.57
2022-12-18T18:31:58.539Z,52.63
2022-12-18T18:34:28.161Z,54.17
2022-12-18T18:36:55.279Z,54.33
2022-12-18T18:39:25.940Z,51.70
2022-12-18T18:41:53.110Z,55.03
2022-12-18T18:44:21.588Z,54.50
2022-12-18T18:46:57.945Z,52.57
2022-12-18T18:49:27.864Z,50.40
2022-12-18T18:51:57.045Z,53.33
2022-12-18T18:54:25.167Z,55.10
2022-12-18T18:57:24.272Z,55.47
2022-12-18T18:59:39.294Z,59.13
2022-12-18T19:02:07.139Z,56.57
2022-12-18T19:04:34.633Z,54.07
2022-12-18T19:07:02.321Z,42.77
2022-12-18T19:09:29.521Z,57.83
2022-12-18T19:12:15.679Z,60.80
2022-12-18T19:14:43.240Z,51.53
2022-12-18T19:17:11.090Z,58.40
2022-12-18T19:19:39.141Z,59.63
2022-12-18T19:22:06.319Z,59.17
2022-12-18T19:24:33.388Z,60.77
2022-12-18T19:27:00.551Z,56.30
2022-12-18T19:29:27.590Z,56.97
2022-12-18T19:31:54.774Z,56.23
2022-12-18T19:34:22.010Z,61.07
2022-12-18T19:36:49.219Z,58.17
2022-12-18T19:39:19.289Z,55.77
2022-12-18T19:41:46.995Z,57.20
2022-12-18T19:44:16.227Z,59.00
2022-12-18T19:46:46.081Z,58.53
2022-12-18T19:49:18.204Z,54.00
2022-12-18T19:51:45.888Z,56.43
2022-12-18T19:54:17.286Z,61.33
2022-12-18T19:56:45.477Z,62.57
2022-12-18T19:59:13.078Z,60.70
2022-12-18T20:01:40.180Z,58.93
2022-12-18T20:04:07.379Z,57.83
2022-12-18T20:06:45.354Z,57.50
2022-12-18T20:09:12.546Z,60.20
2022-12-18T20:11:41.773Z,60.33
2022-12-18T20:14:10.901Z,62.17
2022-12-18T20:16:38.337Z,61.13
2022-12-18T20:19:05.647Z,58.23
2022-12-18T20:21:33.005Z,59.03
2022-12-18T20:24:01.381Z,59.77
2022-12-18T20:26:29.253Z,53.57
2022-12-18T20:28:56.697Z,55.17
2022-12-18T20:31:24.508Z,55.33
2022-12-18T20:33:52.210Z,51.40
2022-12-18T20:36:23.503Z,52.70
2022-12-18T20:38:57.014Z,52.80
2022-12-18T20:41:25.371Z,52.17
2022-12-18T20:43:52.583Z,53.70
2022-12-18T20:46:20.598Z,53.97
2022-12-18T20:48:48.224Z,51.80
2022-12-18T20:51:18.258Z,51.23
2022-12-18T20:53:46.432Z,47.07
2022-12-18T20:56:23.195Z,49.63
2022-12-18T20:58:51.340Z,47.20
2022-12-18T21:01:23.763Z,40.70
2022-12-18T21:03:52.547Z,43.47
2022-12-18T21:06:21.727Z,49.80
2022-12-18T21:08:49.480Z,49.47
2022-12-18T21:11:48.639Z,48.73
2022-12-18T21:14:20.025Z,47.87
2022-12-18T21:16:47.897Z,48.23
2022-12-18T21:19:18.754Z,45.77
2022-12-18T21:21:46.493Z,46.00
2022-12-18T21:24:13.882Z,41.50
2022-12-18T21:26:45.846Z,44.43
2022-12-18T21:29:19.265Z,40.10
2022-12-18T21:31:47.202Z,43.87
2022-12-18T21:34:20.064Z,43.90
2022-12-18T21:36:48.346Z,37.57
2022-12-18T21:39:16.815Z,40.17
2022-12-18T21:42:03.007Z,41.57
2022-12-18T21:44:31.539Z,42.60
2022-12-18T21:47:12.266Z,43.87
2022-12-18T21:49:49.713Z,42.90
2022-12-18T21:52:17.283Z,43.23
2022-12-18T21:54:44.384Z,42.17
2022-12-18T21:57:13.512Z,43.23
2022-12-18T21:59:42.499Z,45.77
2022-12-18T22:02:18.430Z,45.53
2022-12-18T22:04:46.977Z,47.13
2022-12-18T22:07:16.582Z,43.20
2022-12-18T22:09:43.786Z,42.13
2022-12-18T22:12:13.548Z,46.40
2022-12-18T22:14:40.537Z,47.77
2022-12-18T22:17:07.552Z,44.33
2022-12-18T22:19:41.109Z,46.97
2022-12-18T22:22:10.180Z,47.97
2022-12-18T22:24:37.160Z,51.10
2022-12-18T22:27:04.095Z,48.37
2022-12-18T22:29:49.772Z,50.40
2022-12-18T22:32:18.927Z,50.67
2022-12-18T22:35:07.220Z,50.37
2022-12-18T22:37:37.114Z,46.73
2022-12-18T22:40:06.021Z,47.77
2022-12-18T22:42:34.312Z,50.17
2022-12-18T22:45:01.217Z,49.13
2022-12-18T22:47:30.504Z,51.17
2022-12-18T22:49:58.441Z,47.17
2022-12-18T22:52:25.733Z,46.37
2022-12-18T22:54:54.111Z,43.77
2022-12-18T22:57:22.338Z,39.80
2022-12-18T22:59:50.407Z,50.57
2022-12-18T23:02:19.454Z,43.60
2022-12-18T23:04:47.926Z,42.47
2022-12-18T23:07:15.481Z,42.87
2022-12-18T23:09:42.422Z,38.77
2022-12-18T23:12:14.801Z,44.53
2022-12-18T23:14:43.618Z,40.23
2022-12-18T23:17:11.072Z,45.23
2022-12-18T23:19:38.155Z,38.57
2022-12-18T23:22:11.461Z,47.33
2022-12-18T23:24:38.838Z,44.23
2022-12-18T23:27:08.576Z,50.80
2022-12-18T23:29:39.986Z,44.70
2022-12-18T23:32:07.635Z,46.17
2022-12-18T23:34:34.636Z,50.70
2022-12-18T23:37:03.855Z,48.87
2022-12-18T23:39:31.254Z,47.57
2022-12-18T23:42:01.665Z,49.90
2022-12-18T23:44:28.817Z,49.67
2022-12-18T23:46:56.423Z,49.67
2022-12-18T23:49:23.793Z,48.77
2022-12-18T23:51:51.129Z,48.20
2022-12-18T23:54:21.109Z,42.73
2022-12-18T23:56:58.084Z,43.30
2022-12-18T23:59:25.657Z,44.53
